Time,TemperatureF,DewpointF,PressureIn,WindDirection,WindDirectionDegrees,WindSpeedMPH,WindSpeedGustMPH,Humidity,HourlyPrecipIn,Conditions,Clouds,dailyrainin,SolarRadiationWatts/m^2,SoftwareType,DateUTC
2013-04-18 00:02:00,66.7,65.0,30.11,ESE,120,0.0,0.0,95,0.00,,,0.00,0,weatherlink.com 1.10,2013-04-18 04:02:00,
2013-04-18 00:17:00,66.6,65.0,30.12,ESE,120,0.0,0.0,95,0.00,,,0.00,0,weatherlink.com 1.10,2013-04-18 04:17:00,
2013-04-18 00:32:00,66.8,65.0,30.11,ESE,120,0.0,0.0,95,0.00,,,0.00,0,weatherlink.com 1.10,2013-04-18 04:32:00,
2013-04-18 00:47:00,66.8,65.0,30.11,ESE,120,0.0,0.0,95,0.00,,,0.00,0,weatherlink.com 1.10,2013-04-18 04:47:00,
2013-04-18 01:02:00,66.8,65.0,30.10,ESE,120,0.0,0.0,95,0.00,,,0.00,0,weatherlink.com 1.10,2013-04-18 05:02:00,
2013-04-18 01:17:00,67.0,66.0,30.10,NE,46,0.0,0.0,96,0.00,,,0.00,0,weatherlink.com 1.10,2013-04-18 05:17:00,
2013-04-18 01:32:00,67.0,66.0,30.09,NE,56,0.0,1.0,96,0.00,,,0.00,0,weatherlink.com 1.10,2013-04-18 05:32:00,
2013-04-18 01:47:00,67.1,66.0,30.08,NE,56,0.0,0.0,96,0.00,,,0.00,0,weatherlink.com 1.10,2013-04-18 05:47:00,
2013-04-18 02:02:00,67.3,66.0,30.08,NE,56,0.0,1.0,96,0.00,,,0.00,0,weatherlink.com 1.10,2013-04-18 06:02:00,
2013-04-18 02:18:00,67.6,67.0,30.08,NNE,25,0.0,3.0,96,0.00,,,0.00,0,weatherlink.com 1.10,2013-04-18 06:18:00,
2013-04-18 02:33:00,67.4,66.0,30.07,NNE,25,0.0,0.0,96,0.00,,,0.00,0,weatherlink.com 1.10,2013-04-18 06:33:00,
2013-04-18 02:48:00,67.6,67.0,30.07,NNE,25,0.0,0.0,96,0.00,,,0.00,0,weatherlink.com 1.10,2013-04-18 06:48:00,
2013-04-18 03:03:00,67.6,67.0,30.07,NE,36,0.0,0.0,96,0.00,,,0.00,0,weatherlink.com 1.10,2013-04-18 07:03:00,
2013-04-18 03:18:00,67.6,67.0,30.07,NE,36,0.0,0.0,96,0.00,,,0.00,0,weatherlink.com 1.10,2013-04-18 07:18:00,
2013-04-18 03:33:00,67.5,66.0,30.06,NE,35,0.0,0.0,95,0.00,,,0.00,0,weatherlink.com 1.10,2013-04-18 07:33:00,
2013-04-18 03:48:00,67.5,66.0,30.06,SE,129,0.0,1.0,96,0.00,,,0.00,0,weatherlink.com 1.10,2013-04-18 07:48:00,
2013-04-18 04:03:00,67.6,67.0,30.06,NE,37,0.0,0.0,96,0.00,,,0.00,0,weatherlink.com 1.10,2013-04-18 08:03:00,
2013-04-18 04:18:00,67.6,67.0,30.06,NE,47,0.0,0.0,96,0.00,,,0.00,0,weatherlink.com 1.10,2013-04-18 08:18:00,
2013-04-18 04:33:00,67.7,67.0,30.06,SE,124,1.0,6.0,96,0.00,,,0.00,0,weatherlink.com 1.10,2013-04-18 08:33:00,
2013-04-18 04:48:00,68.1,67.0,30.05,ESE,103,2.0,7.0,95,0.00,,,0.00,0,weatherlink.com 1.10,2013-04-18 08:48:00,
2013-04-18 05:03:00,68.2,67.0,30.05,ESE,113,0.0,6.0,95,0.00,,,0.00,0,weatherlink.com 1.10,2013-04-18 09:03:00,
2013-04-18 05:18:00,68.2,67.0,30.05,SE,145,0.0,2.0,95,0.00,,,0.00,0,weatherlink.com 1.10,2013-04-18 09:18:00,
2013-04-18 05:33:00,68.3,67.0,30.06,SE,130,0.0,3.0,95,0.00,,,0.00,0,weatherlink.com 1.10,2013-04-18 09:33:00,
2013-04-18 05:48:00,68.5,67.0,30.07,ENE,77,1.0,5.0,95,0.00,,,0.00,0,weatherlink.com 1.10,2013-04-18 09:48:00,
2013-04-18 06:03:00,68.7,67.0,30.07,ESE,109,1.0,4.0,95,0.00,,,0.00,0,weatherlink.com 1.10,2013-04-18 10:03:00,
2013-04-18 06:18:00,68.6,67.0,30.07,SE,126,0.0,4.0,95,0.00,,,0.00,0,weatherlink.com 1.10,2013-04-18 10:18:00,
2013-04-18 06:33:00,68.6,67.0,30.08,ESE,110,0.0,0.0,95,0.00,,,0.00,0,weatherlink.com 1.10,2013-04-18 10:33:00,
2013-04-18 06:48:00,68.8,67.0,30.09,ESE,110,0.0,0.0,95,0.00,,,0.00,0,weatherlink.com 1.10,2013-04-18 10:48:00,
2013-04-18 07:03:00,68.7,67.0,30.09,ESE,109,0.0,5.0,95,0.04,,,0.04,5,weatherlink.com 1.10,2013-04-18 11:03:00,
2013-04-18 07:18:00,68.6,67.0,30.10,ESE,109,0.0,0.0,95,0.04,,,0.04,21,weatherlink.com 1.10,2013-04-18 11:18:00,
2013-04-18 07:33:00,68.7,68.0,30.10,ESE,109,0.0,0.0,96,0.04,,,0.04,26,weatherlink.com 1.10,2013-04-18 11:33:00,
2013-04-18 07:48:00,68.9,68.0,30.10,ESE,109,0.0,0.0,96,0.04,,,0.04,72,weatherlink.com 1.10,2013-04-18 11:48:00,
2013-04-18 08:03:00,69.3,68.0,30.10,SE,144,0.0,3.0,96,0.00,,,0.00,146,weatherlink.com 1.10,2013-04-18 12:03:00,
2013-04-18 08:18:00,69.4,68.0,30.11,South,173,1.0,6.0,96,0.00,,,0.00,47,weatherlink.com 1.10,2013-04-18 12:18:00,
2013-04-18 08:33:00,68.8,67.0,30.11,SSE,147,8.0,8.0,95,0.00,,,0.00,93,weatherlink.com 1.10,2013-04-18 12:33:00,
2013-04-18 08:48:00,68.5,67.0,30.11,SE,137,0.0,5.0,96,0.00,,,0.00,46,weatherlink.com 1.10,2013-04-18 12:48:00,
2013-04-18 09:03:00,68.3,67.0,30.12,SSE,151,9.0,10.0,96,0.01,,,0.01,54,weatherlink.com 1.10,2013-04-18 13:03:00,
2013-04-18 09:18:00,68.1,67.0,30.11,SSW,196,0.0,6.0,96,0.03,,,0.03,84,weatherlink.com 1.10,2013-04-18 13:18:00,
2013-04-18 09:33:00,68.5,67.0,30.11,SSW,196,0.0,0.0,96,0.03,,,0.03,169,weatherlink.com 1.10,2013-04-18 13:33:00,
2013-04-18 09:48:00,69.2,68.0,30.11,South,179,0.0,1.0,96,0.03,,,0.03,251,weatherlink.com 1.10,2013-04-18 13:48:00,
2013-04-18 10:03:00,70.1,69.0,30.11,SSE,162,0.0,2.0,95,0.02,,,0.03,427,weatherlink.com 1.10,2013-04-18 14:03:00,
2013-04-18 10:18:00,71.1,69.0,30.11,ESE,113,3.0,5.0,93,0.00,,,0.03,207,weatherlink.com 1.10,2013-04-18 14:18:00,
2013-04-18 10:33:00,71.3,69.0,30.11,East,86,3.0,6.0,93,0.00,,,0.03,369,weatherlink.com 1.10,2013-04-18 14:33:00,
2013-04-18 10:48:00,71.6,69.0,30.11,SSE,147,4.0,7.0,91,0.00,,,0.03,230,weatherlink.com 1.10,2013-04-18 14:48:00,
2013-04-18 11:03:00,73.6,71.0,30.12,SSE,157,5.0,9.0,90,0.00,,,0.03,937,weatherlink.com 1.10,2013-04-18 15:03:00,
2013-04-18 11:18:00,74.3,70.0,30.11,ESE,108,3.0,11.0,85,0.00,,,0.03,796,weatherlink.com 1.10,2013-04-18 15:18:00,
2013-04-18 11:33:00,74.4,69.0,30.11,SSE,150,4.0,9.0,84,0.00,,,0.03,318,weatherlink.com 1.10,2013-04-18 15:33:00,
2013-04-18 11:48:00,74.2,70.0,30.11,East,94,2.0,9.0,85,0.00,,,0.03,1002,weatherlink.com 1.10,2013-04-18 15:48:00,
2013-04-18 12:03:00,74.9,70.0,30.11,SE,138,2.0,8.0,84,0.00,,,0.03,863,weatherlink.com 1.10,2013-04-18 16:03:00,
2013-04-18 12:19:00,74.9,69.0,30.11,SSW,192,1.0,11.0,83,0.00,,,0.03,879,weatherlink.com 1.10,2013-04-18 16:19:00,
2013-04-18 12:34:00,75.5,69.0,30.11,SE,139,1.0,10.0,81,0.00,,,0.03,895,weatherlink.com 1.10,2013-04-18 16:34:00,
2013-04-18 12:49:00,75.7,69.0,30.10,SE,138,5.0,10.0,80,0.00,,,0.03,907,weatherlink.com 1.10,2013-04-18 16:49:00,
2013-04-18 13:04:00,75.4,69.0,30.10,SSE,147,3.0,12.0,81,0.00,,,0.03,916,weatherlink.com 1.10,2013-04-18 17:04:00,
2013-04-18 13:19:00,76.0,69.0,30.09,East,99,7.0,11.0,79,0.00,,,0.03,916,weatherlink.com 1.10,2013-04-18 17:19:00,
2013-04-18 13:49:00,76.0,68.0,30.09,East,82,9.0,11.0,77,0.00,,,0.03,911,weatherlink.com 1.10,2013-04-18 17:49:00,
2013-04-18 14:04:00,75.6,68.0,30.09,SE,145,6.0,11.0,78,0.00,,,0.03,902,weatherlink.com 1.10,2013-04-18 18:04:00,
2013-04-18 14:19:00,75.5,68.0,30.08,SE,129,7.0,10.0,78,0.00,,,0.03,889,weatherlink.com 1.10,2013-04-18 18:19:00,
2013-04-18 14:34:00,75.6,69.0,30.08,SSE,149,4.0,11.0,79,0.00,,,0.03,826,weatherlink.com 1.10,2013-04-18 18:34:00,
2013-04-18 14:49:00,76.2,69.0,30.08,SE,127,1.0,10.0,78,0.00,,,0.03,858,weatherlink.com 1.10,2013-04-18 18:49:00,
2013-04-18 15:04:00,75.3,68.0,30.07,SE,132,8.0,12.0,78,0.00,,,0.03,188,weatherlink.com 1.10,2013-04-18 19:04:00,
2013-04-18 15:19:00,76.1,69.0,30.07,SE,136,6.0,7.0,79,0.00,,,0.03,882,weatherlink.com 1.10,2013-04-18 19:19:00,
2013-04-18 15:34:00,75.8,69.0,30.06,ESE,116,4.0,12.0,79,0.00,,,0.03,766,weatherlink.com 1.10,2013-04-18 19:34:00,
2013-04-18 15:49:00,75.6,68.0,30.05,SSE,167,4.0,11.0,78,0.00,,,0.03,722,weatherlink.com 1.10,2013-04-18 19:49:00,
2013-04-18 16:04:00,75.6,69.0,30.05,SE,128,6.0,10.0,79,0.00,,,0.03,684,weatherlink.com 1.10,2013-04-18 20:04:00,
2013-04-18 16:19:00,75.6,69.0,30.04,ESE,123,5.0,9.0,79,0.00,,,0.03,643,weatherlink.com 1.10,2013-04-18 20:19:00,
2013-04-18 16:34:00,76.2,69.0,30.04,SE,144,1.0,7.0,79,0.00,,,0.03,598,weatherlink.com 1.10,2013-04-18 20:34:00,
2013-04-18 16:49:00,75.6,68.0,30.04,SE,132,4.0,8.0,78,0.00,,,0.03,548,weatherlink.com 1.10,2013-04-18 20:49:00,
2013-04-18 17:04:00,75.7,68.0,30.03,SE,142,6.0,10.0,78,0.00,,,0.03,513,weatherlink.com 1.10,2013-04-18 21:04:00,
2013-04-18 17:19:00,75.9,69.0,30.02,ESE,111,5.0,8.0,78,0.00,,,0.03,492,weatherlink.com 1.10,2013-04-18 21:19:00,
2013-04-18 17:34:00,75.8,69.0,30.03,SE,144,5.0,7.0,78,0.00,,,0.03,468,weatherlink.com 1.10,2013-04-18 21:34:00,
2013-04-18 17:50:00,75.6,68.0,30.03,ESE,115,0.0,8.0,78,0.00,,,0.03,359,weatherlink.com 1.10,2013-04-18 21:50:00,
2013-04-18 18:04:00,74.5,68.0,30.03,East,98,3.0,8.0,79,0.00,,,0.03,72,weatherlink.com 1.10,2013-04-18 22:04:00,
2013-04-18 18:19:00,74.3,68.0,30.03,ESE,123,4.0,6.0,80,0.00,,,0.03,153,weatherlink.com 1.10,2013-04-18 22:19:00,
2013-04-18 18:34:00,74.2,68.0,30.02,SE,128,5.0,7.0,81,0.00,,,0.03,148,weatherlink.com 1.10,2013-04-18 22:34:00,
2013-04-18 18:49:00,74.0,68.0,30.02,SE,128,5.0,7.0,81,0.00,,,0.03,149,weatherlink.com 1.10,2013-04-18 22:49:00,
2013-04-18 19:04:00,73.8,68.0,30.01,SE,139,5.0,10.0,82,0.00,,,0.03,91,weatherlink.com 1.10,2013-04-18 23:04:00,
2013-04-18 19:19:00,73.4,68.0,30.00,SE,140,3.0,8.0,83,0.00,,,0.03,49,weatherlink.com 1.10,2013-04-18 23:19:00,
2013-04-18 19:34:00,72.6,68.0,30.00,SE,141,3.0,8.0,85,0.00,,,0.03,18,weatherlink.com 1.10,2013-04-18 23:34:00,
2013-04-18 19:49:00,72.0,68.0,30.00,ESE,123,2.0,7.0,87,0.00,,,0.03,5,weatherlink.com 1.10,2013-04-18 23:49:00,
2013-04-18 20:04:00,71.6,68.0,30.00,East,94,3.0,10.0,88,0.00,,,0.03,0,weatherlink.com 1.10,2013-04-19 00:04:00,
2013-04-18 20:19:00,71.4,68.0,30.01,East,95,1.0,6.0,89,0.00,,,0.03,0,weatherlink.com 1.10,2013-04-19 00:19:00,
2013-04-18 20:34:00,71.2,68.0,30.01,ESE,107,0.0,6.0,90,0.00,,,0.03,0,weatherlink.com 1.10,2013-04-19 00:34:00,
2013-04-18 20:49:00,71.2,68.0,30.01,SE,128,1.0,4.0,90,0.00,,,0.03,0,weatherlink.com 1.10,2013-04-19 00:49:00,
2013-04-18 21:04:00,71.1,68.0,30.01,East,97,1.0,4.0,91,0.00,,,0.03,0,weatherlink.com 1.10,2013-04-19 01:04:00,
2013-04-18 21:19:00,71.0,68.0,30.02,East,91,0.0,3.0,91,0.00,,,0.03,0,weatherlink.com 1.10,2013-04-19 01:19:00,
2013-04-18 21:34:00,71.0,69.0,30.03,East,97,0.0,0.0,92,0.00,,,0.03,0,weatherlink.com 1.10,2013-04-19 01:34:00,
2013-04-18 21:49:00,70.8,68.0,30.03,East,97,0.0,0.0,92,0.00,,,0.03,0,weatherlink.com 1.10,2013-04-19 01:49:00,
2013-04-18 22:04:00,70.7,69.0,30.02,ESE,110,0.0,3.0,93,0.00,,,0.03,0,weatherlink.com 1.10,2013-04-19 02:04:00,
2013-04-18 22:19:00,70.6,69.0,30.02,SE,139,0.0,5.0,93,0.00,,,0.03,0,weatherlink.com 1.10,2013-04-19 02:19:00,
2013-04-18 22:34:00,70.5,68.0,30.02,ESE,120,4.0,5.0,93,0.00,,,0.03,0,weatherlink.com 1.10,2013-04-19 02:34:00,
2013-04-18 22:50:00,70.5,68.0,30.01,ESE,116,2.0,5.0,93,0.00,,,0.03,0,weatherlink.com 1.10,2013-04-19 02:50:00,
2013-04-18 23:05:00,70.4,69.0,30.01,East,95,2.0,5.0,94,0.00,,,0.03,0,weatherlink.com 1.10,2013-04-19 03:05:00,
2013-04-18 23:20:00,70.4,69.0,30.01,SE,137,3.0,5.0,94,0.00,,,0.03,0,weatherlink.com 1.10,2013-04-19 03:20:00,
2013-04-18 23:35:00,70.4,69.0,30.01,SSE,155,3.0,8.0,94,0.00,,,0.03,0,weatherlink.com 1.10,2013-04-19 03:35:00,
2013-04-18 23:50:00,70.3,69.0,30.01,SE,139,0.0,7.0,94,0.00,,,0.03,0,weatherlink.com 1.10,2013-04-19 03:50:00,